sensor_id;sensor_type;location;lat;lon;timestamp;temperature;humidity
30628;DHT22;17394;50.890;4.724;2023-07-22T00:02:18;11.90;99.90
30628;DHT22;17394;50.890;4.724;2023-07-22T00:04:44;11.90;99.90
30628;DHT22;17394;50.890;4.724;2023-07-22T00:07:10;11.90;99.90
30628;DHT22;17394;50.890;4.724;2023-07-22T00:09:36;11.90;99.90
30628;DHT22;17394;50.890;4.724;2023-07-22T00:12:04;11.80;99.90
30628;DHT22;17394;50.890;4.724;2023-07-22T00:14:30;11.80;99.90
30628;DHT22;17394;50.890;4.724;2023-07-22T00:16:56;11.80;99.90
30628;DHT22;17394;50.890;4.724;2023-07-22T00:19:22;11.80;99.90
30628;DHT22;17394;50.890;4.724;2023-07-22T00:21:49;11.80;99.90
30628;DHT22;17394;50.890;4.724;2023-07-22T00:24:14;11.80;99.90
30628;DHT22;17394;50.890;4.724;2023-07-22T00:26:40;11.80;99.90
30628;DHT22;17394;50.890;4.724;2023-07-22T00:29:07;11.90;99.90
30628;DHT22;17394;50.890;4.724;2023-07-22T00:31:33;11.90;99.90
30628;DHT22;17394;50.890;4.724;2023-07-22T00:33:59;12.00;99.90
30628;DHT22;17394;50.890;4.724;2023-07-22T00:36:25;12.10;99.90
30628;DHT22;17394;50.890;4.724;2023-07-22T00:38:50;12.10;99.90
30628;DHT22;17394;50.890;4.724;2023-07-22T00:41:18;12.20;99.90
30628;DHT22;17394;50.890;4.724;2023-07-22T00:43:44;12.20;99.90
30628;DHT22;17394;50.890;4.724;2023-07-22T00:46:09;12.30;99.90
30628;DHT22;17394;50.890;4.724;2023-07-22T00:48:35;12.30;99.90
30628;DHT22;17394;50.890;4.724;2023-07-22T00:51:02;12.30;99.90
30628;DHT22;17394;50.890;4.724;2023-07-22T00:53:27;12.30;99.90
30628;DHT22;17394;50.890;4.724;2023-07-22T00:55:54;12.40;99.90
30628;DHT22;17394;50.890;4.724;2023-07-22T00:58:20;12.40;99.90
30628;DHT22;17394;50.890;4.724;2023-07-22T01:00:46;12.40;99.90
30628;DHT22;17394;50.890;4.724;2023-07-22T01:03:12;12.40;99.90
30628;DHT22;17394;50.890;4.724;2023-07-22T01:05:38;12.50;99.90
30628;DHT22;17394;50.890;4.724;2023-07-22T01:08:04;12.50;99.90
30628;DHT22;17394;50.890;4.724;2023-07-22T01:10:31;12.60;99.90
30628;DHT22;17394;50.890;4.724;2023-07-22T01:12:57;12.60;99.90
30628;DHT22;17394;50.890;4.724;2023-07-22T01:15:23;12.70;99.90
30628;DHT22;17394;50.890;4.724;2023-07-22T01:17:49;12.80;99.90
30628;DHT22;17394;50.890;4.724;2023-07-22T01:20:15;12.90;99.90
30628;DHT22;17394;50.890;4.724;2023-07-22T01:22:42;12.90;99.90
30628;DHT22;17394;50.890;4.724;2023-07-22T01:25:08;13.00;99.90
30628;DHT22;17394;50.890;4.724;2023-07-22T01:27:34;12.90;99.90
30628;DHT22;17394;50.890;4.724;2023-07-22T01:30:01;13.00;99.90
30628;DHT22;17394;50.890;4.724;2023-07-22T01:32:28;13.00;99.90
30628;DHT22;17394;50.890;4.724;2023-07-22T01:34:54;13.10;99.90
30628;DHT22;17394;50.890;4.724;2023-07-22T01:37:19;13.80;99.90
30628;DHT22;17394;50.890;4.724;2023-07-22T01:39:45;13.20;99.90
30628;DHT22;17394;50.890;4.724;2023-07-22T01:42:11;13.20;99.90
30628;DHT22;17394;50.890;4.724;2023-07-22T01:44:37;13.90;99.90
30628;DHT22;17394;50.890;4.724;2023-07-22T01:47:03;13.20;99.90
30628;DHT22;17394;50.890;4.724;2023-07-22T01:49:29;13.30;99.90
30628;DHT22;17394;50.890;4.724;2023-07-22T01:51:54;13.30;99.90
30628;DHT22;17394;50.890;4.724;2023-07-22T01:54:20;13.30;99.90
30628;DHT22;17394;50.890;4.724;2023-07-22T01:56:46;12.90;99.90
30628;DHT22;17394;50.890;4.724;2023-07-22T01:59:12;13.40;99.90
30628;DHT22;17394;50.890;4.724;2023-07-22T02:01:37;13.40;99.90
30628;DHT22;17394;50.890;4.724;2023-07-22T02:04:04;13.40;99.90
30628;DHT22;17394;50.890;4.724;2023-07-22T02:06:29;13.40;99.90
30628;DHT22;17394;50.890;4.724;2023-07-22T02:08:56;13.40;99.90
30628;DHT22;17394;50.890;4.724;2023-07-22T02:11:22;13.40;99.90
30628;DHT22;17394;50.890;4.724;2023-07-22T02:13:48;13.40;99.90
30628;DHT22;17394;50.890;4.724;2023-07-22T02:16:14;13.30;99.90
30628;DHT22;17394;50.890;4.724;2023-07-22T02:18:40;13.30;99.90
30628;DHT22;17394;50.890;4.724;2023-07-22T02:21:06;13.30;99.90
30628;DHT22;17394;50.890;4.724;2023-07-22T02:23:32;13.30;99.90
30628;DHT22;17394;50.890;4.724;2023-07-22T02:25:57;13.20;99.90
30628;DHT22;17394;50.890;4.724;2023-07-22T02:28:24;13.20;99.90
30628;DHT22;17394;50.890;4.724;2023-07-22T02:30:50;13.10;99.90
30628;DHT22;17394;50.890;4.724;2023-07-22T02:33:18;13.10;99.90
30628;DHT22;17394;50.890;4.724;2023-07-22T02:35:44;13.00;99.90
30628;DHT22;17394;50.890;4.724;2023-07-22T02:38:10;13.00;99.90
30628;DHT22;17394;50.890;4.724;2023-07-22T02:40:39;13.00;99.90
30628;DHT22;17394;50.890;4.724;2023-07-22T02:43:05;12.90;99.90
30628;DHT22;17394;50.890;4.724;2023-07-22T02:45:32;12.90;99.90
30628;DHT22;17394;50.890;4.724;2023-07-22T02:47:58;12.90;99.90
30628;DHT22;17394;50.890;4.724;2023-07-22T02:50:24;12.80;99.90
30628;DHT22;17394;50.890;4.724;2023-07-22T02:52:51;12.80;99.90
30628;DHT22;17394;50.890;4.724;2023-07-22T02:55:17;12.70;99.90
30628;DHT22;17394;50.890;4.724;2023-07-22T02:57:46;12.70;99.90
30628;DHT22;17394;50.890;4.724;2023-07-22T03:00:12;12.00;99.90
30628;DHT22;17394;50.890;4.724;2023-07-22T03:02:41;12.50;99.90
30628;DHT22;17394;50.890;4.724;2023-07-22T03:05:07;12.50;99.90
30628;DHT22;17394;50.890;4.724;2023-07-22T03:07:34;12.50;99.90
30628;DHT22;17394;50.890;4.724;2023-07-22T03:10:00;12.50;99.90
30628;DHT22;17394;50.890;4.724;2023-07-22T03:12:26;12.40;99.90
30628;DHT22;17394;50.890;4.724;2023-07-22T03:14:52;12.40;99.90
30628;DHT22;17394;50.890;4.724;2023-07-22T03:17:19;12.40;99.90
30628;DHT22;17394;50.890;4.724;2023-07-22T03:19:45;12.40;99.90
30628;DHT22;17394;50.890;4.724;2023-07-22T03:22:13;12.40;99.90
30628;DHT22;17394;50.890;4.724;2023-07-22T03:24:39;12.40;99.90
30628;DHT22;17394;50.890;4.724;2023-07-22T03:27:04;12.30;99.90
30628;DHT22;17394;50.890;4.724;2023-07-22T03:29:31;12.40;99.90
30628;DHT22;17394;50.890;4.724;2023-07-22T03:31:57;12.30;99.90
30628;DHT22;17394;50.890;4.724;2023-07-22T03:34:26;12.40;99.90
30628;DHT22;17394;50.890;4.724;2023-07-22T03:36:52;12.40;99.90
30628;DHT22;17394;50.890;4.724;2023-07-22T03:39:18;12.40;99.90
30628;DHT22;17394;50.890;4.724;2023-07-22T03:41:44;12.40;99.90
30628;DHT22;17394;50.890;4.724;2023-07-22T03:44:10;12.30;99.90
30628;DHT22;17394;50.890;4.724;2023-07-22T03:46:36;12.30;99.90
30628;DHT22;17394;50.890;4.724;2023-07-22T03:49:01;12.20;99.90
30628;DHT22;17394;50.890;4.724;2023-07-22T03:51:27;12.20;99.90
30628;DHT22;17394;50.890;4.724;2023-07-22T03:53:53;12.20;99.90
30628;DHT22;17394;50.890;4.724;2023-07-22T03:56:20;12.10;99.90
30628;DHT22;17394;50.890;4.724;2023-07-22T03:58:45;12.10;99.90
30628;DHT22;17394;50.890;4.724;2023-07-22T04:01:11;12.10;99.90
30628;DHT22;17394;50.890;4.724;2023-07-22T04:03:39;12.10;99.90
30628;DHT22;17394;50.890;4.724;2023-07-22T04:06:05;12.10;99.90
30628;DHT22;17394;50.890;4.724;2023-07-22T04:08:31;12.10;99.90
30628;DHT22;17394;50.890;4.724;2023-07-22T04:10:57;12.10;99.90
30628;DHT22;17394;50.890;4.724;2023-07-22T04:13:23;12.10;99.90
30628;DHT22;17394;50.890;4.724;2023-07-22T04:15:49;12.10;99.90
30628;DHT22;17394;50.890;4.724;2023-07-22T04:18:15;12.10;99.90
30628;DHT22;17394;50.890;4.724;2023-07-22T04:20:41;12.10;99.90
30628;DHT22;17394;50.890;4.724;2023-07-22T04:23:07;12.20;99.90
30628;DHT22;17394;50.890;4.724;2023-07-22T04:25:38;12.20;99.90
30628;DHT22;17394;50.890;4.724;2023-07-22T04:28:04;12.20;99.90
30628;DHT22;17394;50.890;4.724;2023-07-22T04:30:30;12.20;99.90
30628;DHT22;17394;50.890;4.724;2023-07-22T04:32:56;12.30;99.90
30628;DHT22;17394;50.890;4.724;2023-07-22T04:35:22;12.30;99.90
30628;DHT22;17394;50.890;4.724;2023-07-22T04:37:48;12.40;99.90
30628;DHT22;17394;50.890;4.724;2023-07-22T04:40:14;12.50;99.90
30628;DHT22;17394;50.890;4.724;2023-07-22T04:42:40;12.60;99.90
30628;DHT22;17394;50.890;4.724;2023-07-22T04:45:07;12.70;99.90
30628;DHT22;17394;50.890;4.724;2023-07-22T04:47:35;12.20;99.90
30628;DHT22;17394;50.890;4.724;2023-07-22T04:50:01;12.90;99.90
30628;DHT22;17394;50.890;4.724;2023-07-22T04:52:27;13.10;99.90
30628;DHT22;17394;50.890;4.724;2023-07-22T04:54:52;12.90;99.90
30628;DHT22;17394;50.890;4.724;2023-07-22T04:57:19;13.20;99.90
30628;DHT22;17394;50.890;4.724;2023-07-22T04:59:45;13.40;99.90
30628;DHT22;17394;50.890;4.724;2023-07-22T05:02:11;13.40;99.90
30628;DHT22;17394;50.890;4.724;2023-07-22T05:04:37;13.50;99.90
30628;DHT22;17394;50.890;4.724;2023-07-22T05:07:03;13.50;99.90
30628;DHT22;17394;50.890;4.724;2023-07-22T05:09:29;13.60;99.90
30628;DHT22;17394;50.890;4.724;2023-07-22T05:11:55;13.60;99.90
30628;DHT22;17394;50.890;4.724;2023-07-22T05:14:21;13.70;99.90
30628;DHT22;17394;50.890;4.724;2023-07-22T05:16:46;13.70;99.90
30628;DHT22;17394;50.890;4.724;2023-07-22T05:19:12;13.70;99.90
30628;DHT22;17394;50.890;4.724;2023-07-22T05:21:38;13.70;99.90
30628;DHT22;17394;50.890;4.724;2023-07-22T05:24:04;13.80;99.90
30628;DHT22;17394;50.890;4.724;2023-07-22T05:26:30;13.80;99.90
30628;DHT22;17394;50.890;4.724;2023-07-22T05:28:56;13.80;99.90
30628;DHT22;17394;50.890;4.724;2023-07-22T05:31:22;13.90;99.90
30628;DHT22;17394;50.890;4.724;2023-07-22T05:33:48;13.90;99.90
30628;DHT22;17394;50.890;4.724;2023-07-22T05:36:14;14.00;99.90
30628;DHT22;17394;50.890;4.724;2023-07-22T05:38:39;14.20;99.90
30628;DHT22;17394;50.890;4.724;2023-07-22T05:41:05;14.10;99.90
30628;DHT22;17394;50.890;4.724;2023-07-22T05:43:31;14.20;99.90
30628;DHT22;17394;50.890;4.724;2023-07-22T05:45:57;14.20;99.90
30628;DHT22;17394;50.890;4.724;2023-07-22T05:48:23;14.30;99.90
30628;DHT22;17394;50.890;4.724;2023-07-22T05:50:48;14.40;99.90
30628;DHT22;17394;50.890;4.724;2023-07-22T05:53:15;14.50;99.90
30628;DHT22;17394;50.890;4.724;2023-07-22T05:55:40;14.50;99.90
30628;DHT22;17394;50.890;4.724;2023-07-22T05:58:06;14.50;99.90
30628;DHT22;17394;50.890;4.724;2023-07-22T06:00:33;14.60;99.90
30628;DHT22;17394;50.890;4.724;2023-07-22T06:02:59;14.70;99.90
30628;DHT22;17394;50.890;4.724;2023-07-22T06:05:25;14.70;99.90
30628;DHT22;17394;50.890;4.724;2023-07-22T06:07:50;14.80;99.90
30628;DHT22;17394;50.890;4.724;2023-07-22T06:10:16;14.90;99.90
30628;DHT22;17394;50.890;4.724;2023-07-22T06:12:43;15.00;99.90
30628;DHT22;17394;50.890;4.724;2023-07-22T06:15:09;15.00;99.90
30628;DHT22;17394;50.890;4.724;2023-07-22T06:17:35;15.10;99.90
30628;DHT22;17394;50.890;4.724;2023-07-22T06:20:01;15.10;99.90
30628;DHT22;17394;50.890;4.724;2023-07-22T06:22:28;15.20;99.90
30628;DHT22;17394;50.890;4.724;2023-07-22T06:24:57;15.30;99.90
30628;DHT22;17394;50.890;4.724;2023-07-22T06:27:23;15.00;99.90
30628;DHT22;17394;50.890;4.724;2023-07-22T06:29:50;15.50;99.90
30628;DHT22;17394;50.890;4.724;2023-07-22T06:32:16;15.70;99.90
30628;DHT22;17394;50.890;4.724;2023-07-22T06:34:42;15.80;99.90
30628;DHT22;17394;50.890;4.724;2023-07-22T06:37:08;16.00;99.90
30628;DHT22;17394;50.890;4.724;2023-07-22T06:44:25;16.30;99.90
30628;DHT22;17394;50.890;4.724;2023-07-22T06:46:51;16.40;99.90
30628;DHT22;17394;50.890;4.724;2023-07-22T06:49:18;16.50;99.90
30628;DHT22;17394;50.890;4.724;2023-07-22T06:51:44;16.60;99.90
30628;DHT22;17394;50.890;4.724;2023-07-22T06:54:10;16.60;99.90
30628;DHT22;17394;50.890;4.724;2023-07-22T06:56:37;16.70;99.90
30628;DHT22;17394;50.890;4.724;2023-07-22T06:59:03;16.70;99.90
30628;DHT22;17394;50.890;4.724;2023-07-22T07:01:29;16.80;99.90
30628;DHT22;17394;50.890;4.724;2023-07-22T07:03:55;16.90;99.90
30628;DHT22;17394;50.890;4.724;2023-07-22T07:06:22;17.00;99.90
30628;DHT22;17394;50.890;4.724;2023-07-22T07:08:48;17.10;99.90
30628;DHT22;17394;50.890;4.724;2023-07-22T07:11:14;17.10;99.90
30628;DHT22;17394;50.890;4.724;2023-07-22T07:13:40;17.10;99.90
30628;DHT22;17394;50.890;4.724;2023-07-22T07:16:19;17.20;99.90
30628;DHT22;17394;50.890;4.724;2023-07-22T07:18:46;17.30;99.90
30628;DHT22;17394;50.890;4.724;2023-07-22T07:21:12;17.40;99.90
30628;DHT22;17394;50.890;4.724;2023-07-22T07:23:39;17.40;99.90
30628;DHT22;17394;50.890;4.724;2023-07-22T07:26:05;17.40;99.90
30628;DHT22;17394;50.890;4.724;2023-07-22T07:28:31;17.40;99.90
30628;DHT22;17394;50.890;4.724;2023-07-22T07:30:57;17.40;99.90
30628;DHT22;17394;50.890;4.724;2023-07-22T07:33:23;17.40;99.90
30628;DHT22;17394;50.890;4.724;2023-07-22T07:35:49;17.50;99.90
30628;DHT22;17394;50.890;4.724;2023-07-22T07:38:16;17.70;99.90
30628;DHT22;17394;50.890;4.724;2023-07-22T07:40:42;18.00;99.90
30628;DHT22;17394;50.890;4.724;2023-07-22T07:43:08;18.20;99.90
30628;DHT22;17394;50.890;4.724;2023-07-22T07:45:38;18.40;99.90
30628;DHT22;17394;50.890;4.724;2023-07-22T07:48:05;18.50;99.90
30628;DHT22;17394;50.890;4.724;2023-07-22T07:50:32;18.70;99.90
30628;DHT22;17394;50.890;4.724;2023-07-22T07:52:58;18.80;99.90
30628;DHT22;17394;50.890;4.724;2023-07-22T07:55:25;18.90;99.90
30628;DHT22;17394;50.890;4.724;2023-07-22T07:57:51;19.10;99.90
30628;DHT22;17394;50.890;4.724;2023-07-22T08:00:17;19.20;99.90
30628;DHT22;17394;50.890;4.724;2023-07-22T08:02:43;19.30;99.90
30628;DHT22;17394;50.890;4.724;2023-07-22T08:05:09;19.20;99.90
30628;DHT22;17394;50.890;4.724;2023-07-22T08:07:36;19.10;99.90
30628;DHT22;17394;50.890;4.724;2023-07-22T08:10:02;19.00;99.90
30628;DHT22;17394;50.890;4.724;2023-07-22T08:12:30;19.00;99.90
30628;DHT22;17394;50.890;4.724;2023-07-22T08:14:56;18.90;99.90
30628;DHT22;17394;50.890;4.724;2023-07-22T08:17:21;18.80;99.90
30628;DHT22;17394;50.890;4.724;2023-07-22T08:19:47;18.70;99.90
30628;DHT22;17394;50.890;4.724;2023-07-22T08:22:14;18.60;99.90
30628;DHT22;17394;50.890;4.724;2023-07-22T08:24:40;18.60;99.90
30628;DHT22;17394;50.890;4.724;2023-07-22T08:27:06;18.70;99.90
30628;DHT22;17394;50.890;4.724;2023-07-22T08:29:32;18.90;99.90
30628;DHT22;17394;50.890;4.724;2023-07-22T08:31:58;19.10;99.90
30628;DHT22;17394;50.890;4.724;2023-07-22T08:34:24;19.30;99.90
30628;DHT22;17394;50.890;4.724;2023-07-22T08:36:50;19.40;99.90
30628;DHT22;17394;50.890;4.724;2023-07-22T08:39:16;19.60;99.90
30628;DHT22;17394;50.890;4.724;2023-07-22T08:41:43;19.80;99.90
30628;DHT22;17394;50.890;4.724;2023-07-22T08:44:11;20.10;99.90
30628;DHT22;17394;50.890;4.724;2023-07-22T08:46:39;20.40;99.90
30628;DHT22;17394;50.890;4.724;2023-07-22T08:49:06;20.60;99.90
30628;DHT22;17394;50.890;4.724;2023-07-22T08:51:33;20.60;99.90
30628;DHT22;17394;50.890;4.724;2023-07-22T08:54:00;20.70;99.90
30628;DHT22;17394;50.890;4.724;2023-07-22T08:56:26;20.80;99.90
30628;DHT22;17394;50.890;4.724;2023-07-22T08:58:52;20.70;99.90
30628;DHT22;17394;50.890;4.724;2023-07-22T09:01:18;20.50;99.90
30628;DHT22;17394;50.890;4.724;2023-07-22T09:03:45;20.30;99.90
30628;DHT22;17394;50.890;4.724;2023-07-22T09:06:14;20.30;99.90
30628;DHT22;17394;50.890;4.724;2023-07-22T09:08:40;20.30;99.90
30628;DHT22;17394;50.890;4.724;2023-07-22T09:11:07;20.40;99.90
30628;DHT22;17394;50.890;4.724;2023-07-22T09:13:33;20.80;99.90
30628;DHT22;17394;50.890;4.724;2023-07-22T09:16:00;21.10;99.90
30628;DHT22;17394;50.890;4.724;2023-07-22T09:18:28;21.10;99.90
30628;DHT22;17394;50.890;4.724;2023-07-22T09:20:54;21.20;99.90
30628;DHT22;17394;50.890;4.724;2023-07-22T09:23:31;21.20;99.90
30628;DHT22;17394;50.890;4.724;2023-07-22T09:26:07;21.30;99.90
30628;DHT22;17394;50.890;4.724;2023-07-22T09:28:47;21.30;99.90
30628;DHT22;17394;50.890;4.724;2023-07-22T09:31:13;21.30;99.90
30628;DHT22;17394;50.890;4.724;2023-07-22T09:33:38;21.30;99.90
30628;DHT22;17394;50.890;4.724;2023-07-22T09:36:05;21.30;99.90
30628;DHT22;17394;50.890;4.724;2023-07-22T09:38:30;21.30;99.90
30628;DHT22;17394;50.890;4.724;2023-07-22T09:40:57;21.40;99.90
30628;DHT22;17394;50.890;4.724;2023-07-22T09:43:23;21.40;99.90
30628;DHT22;17394;50.890;4.724;2023-07-22T09:45:49;21.60;99.90
30628;DHT22;17394;50.890;4.724;2023-07-22T09:48:15;21.70;99.90
30628;DHT22;17394;50.890;4.724;2023-07-22T09:50:42;21.90;99.90
30628;DHT22;17394;50.890;4.724;2023-07-22T09:53:08;22.10;99.90
30628;DHT22;17394;50.890;4.724;2023-07-22T09:55:34;22.30;99.90
30628;DHT22;17394;50.890;4.724;2023-07-22T09:58:01;22.40;99.90
30628;DHT22;17394;50.890;4.724;2023-07-22T10:00:36;22.60;99.90
30628;DHT22;17394;50.890;4.724;2023-07-22T10:03:02;22.60;99.90
30628;DHT22;17394;50.890;4.724;2023-07-22T10:05:32;22.50;99.90
30628;DHT22;17394;50.890;4.724;2023-07-22T10:07:59;22.70;99.90
30628;DHT22;17394;50.890;4.724;2023-07-22T10:10:26;22.80;99.90
30628;DHT22;17394;50.890;4.724;2023-07-22T10:12:52;22.80;99.90
30628;DHT22;17394;50.890;4.724;2023-07-22T10:15:19;22.90;99.90
30628;DHT22;17394;50.890;4.724;2023-07-22T10:17:45;23.00;99.90
30628;DHT22;17394;50.890;4.724;2023-07-22T10:20:12;22.90;99.90
30628;DHT22;17394;50.890;4.724;2023-07-22T10:22:42;22.80;99.90
30628;DHT22;17394;50.890;4.724;2023-07-22T10:25:08;22.70;99.90
30628;DHT22;17394;50.890;4.724;2023-07-22T10:27:35;22.90;99.90
30628;DHT22;17394;50.890;4.724;2023-07-22T10:30:04;23.10;99.90
30628;DHT22;17394;50.890;4.724;2023-07-22T10:33:04;23.20;99.90
30628;DHT22;17394;50.890;4.724;2023-07-22T10:38:12;23.70;99.90
30628;DHT22;17394;50.890;4.724;2023-07-22T10:43:15;23.90;99.90
30628;DHT22;17394;50.890;4.724;2023-07-22T10:45:48;23.90;99.90
30628;DHT22;17394;50.890;4.724;2023-07-22T10:48:14;23.90;99.90
30628;DHT22;17394;50.890;4.724;2023-07-22T10:50:50;24.00;99.90
30628;DHT22;17394;50.890;4.724;2023-07-22T10:56:11;24.00;99.90
30628;DHT22;17394;50.890;4.724;2023-07-22T11:06:28;24.20;99.90
30628;DHT22;17394;50.890;4.724;2023-07-22T11:08:55;24.00;99.90
30628;DHT22;17394;50.890;4.724;2023-07-22T11:11:21;24.00;99.90
30628;DHT22;17394;50.890;4.724;2023-07-22T11:13:47;24.00;99.90
30628;DHT22;17394;50.890;4.724;2023-07-22T11:16:13;24.10;99.90
30628;DHT22;17394;50.890;4.724;2023-07-22T11:18:39;24.30;99.90
30628;DHT22;17394;50.890;4.724;2023-07-22T11:21:12;24.10;99.90
30628;DHT22;17394;50.890;4.724;2023-07-22T11:23:38;23.90;99.90
30628;DHT22;17394;50.890;4.724;2023-07-22T11:26:05;23.80;99.90
30628;DHT22;17394;50.890;4.724;2023-07-22T11:28:31;23.60;99.90
30628;DHT22;17394;50.890;4.724;2023-07-22T11:30:57;23.70;99.90
30628;DHT22;17394;50.890;4.724;2023-07-22T11:33:30;23.90;99.90
30628;DHT22;17394;50.890;4.724;2023-07-22T11:36:03;24.10;99.90
30628;DHT22;17394;50.890;4.724;2023-07-22T11:38:29;24.20;99.90
30628;DHT22;17394;50.890;4.724;2023-07-22T11:40:55;24.30;99.90
30628;DHT22;17394;50.890;4.724;2023-07-22T11:43:21;24.30;99.90
30628;DHT22;17394;50.890;4.724;2023-07-22T11:45:47;24.20;99.90
30628;DHT22;17394;50.890;4.724;2023-07-22T11:48:13;24.00;99.90
30628;DHT22;17394;50.890;4.724;2023-07-22T11:50:39;23.90;99.90
30628;DHT22;17394;50.890;4.724;2023-07-22T11:53:06;24.00;99.90
30628;DHT22;17394;50.890;4.724;2023-07-22T11:55:34;24.30;99.90
30628;DHT22;17394;50.890;4.724;2023-07-22T11:58:00;24.50;99.90
30628;DHT22;17394;50.890;4.724;2023-07-22T12:00:26;24.70;99.90
30628;DHT22;17394;50.890;4.724;2023-07-22T12:02:52;24.60;99.90
30628;DHT22;17394;50.890;4.724;2023-07-22T12:05:22;24.60;99.90
30628;DHT22;17394;50.890;4.724;2023-07-22T12:07:48;24.50;99.90
30628;DHT22;17394;50.890;4.724;2023-07-22T12:10:15;24.50;99.90
30628;DHT22;17394;50.890;4.724;2023-07-22T12:12:41;24.60;99.90
30628;DHT22;17394;50.890;4.724;2023-07-22T12:15:11;24.70;99.90
30628;DHT22;17394;50.890;4.724;2023-07-22T12:17:47;24.70;99.90
30628;DHT22;17394;50.890;4.724;2023-07-22T12:20:13;24.70;99.90
30628;DHT22;17394;50.890;4.724;2023-07-22T12:22:39;24.70;99.90
30628;DHT22;17394;50.890;4.724;2023-07-22T12:25:05;24.80;99.90
30628;DHT22;17394;50.890;4.724;2023-07-22T12:27:31;24.70;99.90
30628;DHT22;17394;50.890;4.724;2023-07-22T12:29:57;24.80;99.90
30628;DHT22;17394;50.890;4.724;2023-07-22T12:32:23;24.80;99.90
30628;DHT22;17394;50.890;4.724;2023-07-22T12:34:48;24.60;99.90
30628;DHT22;17394;50.890;4.724;2023-07-22T12:37:15;24.40;99.90
30628;DHT22;17394;50.890;4.724;2023-07-22T12:39:41;24.10;99.90
30628;DHT22;17394;50.890;4.724;2023-07-22T12:42:07;24.10;99.90
30628;DHT22;17394;50.890;4.724;2023-07-22T12:44:33;24.20;99.90
30628;DHT22;17394;50.890;4.724;2023-07-22T12:46:59;24.40;99.90
30628;DHT22;17394;50.890;4.724;2023-07-22T12:49:25;24.30;99.90
30628;DHT22;17394;50.890;4.724;2023-07-22T12:51:51;24.00;99.90
30628;DHT22;17394;50.890;4.724;2023-07-22T12:54:17;24.00;99.90
30628;DHT22;17394;50.890;4.724;2023-07-22T12:56:43;24.10;99.90
30628;DHT22;17394;50.890;4.724;2023-07-22T12:59:09;24.00;99.90
30628;DHT22;17394;50.890;4.724;2023-07-22T13:01:35;23.80;99.90
30628;DHT22;17394;50.890;4.724;2023-07-22T13:04:04;23.90;99.90
30628;DHT22;17394;50.890;4.724;2023-07-22T13:06:31;24.20;99.90
30628;DHT22;17394;50.890;4.724;2023-07-22T13:08:57;24.10;99.90
30628;DHT22;17394;50.890;4.724;2023-07-22T13:11:23;23.90;99.90
30628;DHT22;17394;50.890;4.724;2023-07-22T13:13:49;23.80;99.90
30628;DHT22;17394;50.890;4.724;2023-07-22T13:16:15;23.70;99.90
30628;DHT22;17394;50.890;4.724;2023-07-22T13:18:41;23.90;99.90
30628;DHT22;17394;50.890;4.724;2023-07-22T13:21:07;24.20;99.90
30628;DHT22;17394;50.890;4.724;2023-07-22T13:23:33;24.50;99.90
30628;DHT22;17394;50.890;4.724;2023-07-22T13:25:59;24.60;99.90
30628;DHT22;17394;50.890;4.724;2023-07-22T13:28:25;24.70;99.90
30628;DHT22;17394;50.890;4.724;2023-07-22T13:30:51;24.80;99.90
30628;DHT22;17394;50.890;4.724;2023-07-22T13:33:17;24.80;99.90
30628;DHT22;17394;50.890;4.724;2023-07-22T13:35:44;24.90;99.90
30628;DHT22;17394;50.890;4.724;2023-07-22T13:38:10;25.00;99.90
30628;DHT22;17394;50.890;4.724;2023-07-22T13:40:36;25.20;99.90
30628;DHT22;17394;50.890;4.724;2023-07-22T13:43:01;25.40;99.90
30628;DHT22;17394;50.890;4.724;2023-07-22T13:45:29;25.60;99.90
30628;DHT22;17394;50.890;4.724;2023-07-22T13:47:55;25.60;99.90
30628;DHT22;17394;50.890;4.724;2023-07-22T13:50:20;25.50;99.90
30628;DHT22;17394;50.890;4.724;2023-07-22T13:52:47;25.40;99.70
30628;DHT22;17394;50.890;4.724;2023-07-22T13:55:13;25.20;99.40
30628;DHT22;17394;50.890;4.724;2023-07-22T13:57:39;25.10;99.30
30628;DHT22;17394;50.890;4.724;2023-07-22T14:00:05;24.90;99.20
30628;DHT22;17394;50.890;4.724;2023-07-22T14:02:36;24.90;98.80
30628;DHT22;17394;50.890;4.724;2023-07-22T14:05:02;24.90;99.60
30628;DHT22;17394;50.890;4.724;2023-07-22T14:07:28;24.90;99.00
30628;DHT22;17394;50.890;4.724;2023-07-22T14:09:54;25.10;98.80
30628;DHT22;17394;50.890;4.724;2023-07-22T14:12:21;25.20;99.30
30628;DHT22;17394;50.890;4.724;2023-07-22T14:14:48;25.30;98.30
30628;DHT22;17394;50.890;4.724;2023-07-22T14:17:14;25.10;98.30
30628;DHT22;17394;50.890;4.724;2023-07-22T14:19:40;24.80;98.40
30628;DHT22;17394;50.890;4.724;2023-07-22T14:22:07;24.60;98.90
30628;DHT22;17394;50.890;4.724;2023-07-22T14:24:33;24.30;98.90
30628;DHT22;17394;50.890;4.724;2023-07-22T14:26:59;24.00;99.00
30628;DHT22;17394;50.890;4.724;2023-07-22T14:29:25;23.60;99.40
30628;DHT22;17394;50.890;4.724;2023-07-22T14:31:51;23.30;99.70
30628;DHT22;17394;50.890;4.724;2023-07-22T14:34:17;23.10;99.90
30628;DHT22;17394;50.890;4.724;2023-07-22T14:36:43;22.80;99.90
30628;DHT22;17394;50.890;4.724;2023-07-22T14:39:09;23.00;99.90
30628;DHT22;17394;50.890;4.724;2023-07-22T14:41:35;22.40;99.90
30628;DHT22;17394;50.890;4.724;2023-07-22T14:44:01;22.30;99.90
30628;DHT22;17394;50.890;4.724;2023-07-22T14:46:27;22.10;99.90
30628;DHT22;17394;50.890;4.724;2023-07-22T14:48:53;22.10;99.90
30628;DHT22;17394;50.890;4.724;2023-07-22T14:51:19;21.90;99.90
30628;DHT22;17394;50.890;4.724;2023-07-22T14:53:45;21.90;99.90
30628;DHT22;17394;50.890;4.724;2023-07-22T14:56:11;21.90;99.90
30628;DHT22;17394;50.890;4.724;2023-07-22T14:58:37;21.90;99.90
30628;DHT22;17394;50.890;4.724;2023-07-22T15:01:02;22.00;99.90
30628;DHT22;17394;50.890;4.724;2023-07-22T15:03:29;22.20;99.90
30628;DHT22;17394;50.890;4.724;2023-07-22T15:05:55;22.40;99.90
30628;DHT22;17394;50.890;4.724;2023-07-22T15:08:21;22.60;99.90
30628;DHT22;17394;50.890;4.724;2023-07-22T15:10:46;22.90;99.90
30628;DHT22;17394;50.890;4.724;2023-07-22T15:13:12;23.10;99.90
30628;DHT22;17394;50.890;4.724;2023-07-22T15:15:38;23.30;99.90
30628;DHT22;17394;50.890;4.724;2023-07-22T15:18:04;23.50;99.90
30628;DHT22;17394;50.890;4.724;2023-07-22T15:20:30;23.50;99.90
30628;DHT22;17394;50.890;4.724;2023-07-22T15:22:56;23.50;99.90
30628;DHT22;17394;50.890;4.724;2023-07-22T15:25:22;23.60;99.90
30628;DHT22;17394;50.890;4.724;2023-07-22T15:27:48;23.70;99.90
30628;DHT22;17394;50.890;4.724;2023-07-22T15:30:14;23.60;99.90
30628;DHT22;17394;50.890;4.724;2023-07-22T15:32:40;23.60;99.90
30628;DHT22;17394;50.890;4.724;2023-07-22T15:35:08;23.50;99.90
30628;DHT22;17394;50.890;4.724;2023-07-22T15:37:33;23.30;99.90
30628;DHT22;17394;50.890;4.724;2023-07-22T15:40:00;23.10;99.90
30628;DHT22;17394;50.890;4.724;2023-07-22T15:42:27;23.00;99.90
30628;DHT22;17394;50.890;4.724;2023-07-22T15:44:53;22.90;99.90
30628;DHT22;17394;50.890;4.724;2023-07-22T15:47:20;22.90;99.90